createdAt,value
2023-01-04T00:01:25.808Z,6.37
2023-01-04T00:03:53.794Z,7.00
2023-01-04T00:06:23.113Z,3.17
2023-01-04T00:08:51.020Z,3.00
2023-01-04T00:11:20.963Z,2.83
2023-01-04T00:13:50.349Z,3.80
2023-01-04T00:16:20.471Z,3.03
2023-01-04T00:18:49.231Z,5.97
2023-01-04T00:21:18.961Z,2.70
2023-01-04T00:23:50.054Z,2.10
2023-01-04T00:26:20.637Z,3.80
2023-01-04T00:28:54.143Z,4.60
2023-01-04T00:31:23.315Z,1.43
2023-01-04T00:33:51.251Z,4.80
2023-01-04T00:36:19.246Z,6.53
2023-01-04T00:38:48.522Z,3.70
2023-01-04T00:41:34.746Z,4.07
2023-01-04T00:44:04.551Z,3.97
2023-01-04T00:46:32.721Z,3.57
2023-01-04T00:49:01.376Z,4.50
2023-01-04T00:51:30.892Z,3.60
2023-01-04T00:54:02.382Z,3.27
2023-01-04T00:56:30.559Z,2.30
2023-01-04T00:59:00.015Z,3.73
2023-01-04T01:01:31.922Z,6.10
2023-01-04T01:04:02.710Z,3.43
2023-01-04T01:06:31.805Z,5.33
2023-01-04T01:09:01.674Z,6.23
2023-01-04T01:11:30.547Z,3.37
2023-01-04T01:13:58.964Z,7.37
2023-01-04T01:16:52.842Z,2.03
2023-01-04T01:19:16.347Z,4.10
2023-01-04T01:21:44.684Z,1.97
2023-01-04T01:24:17.926Z,2.40
2023-01-04T01:26:46.453Z,5.23
2023-01-04T01:29:14.405Z,3.27
2023-01-04T01:31:43.356Z,3.80
2023-01-04T01:34:11.331Z,5.53
2023-01-04T01:36:39.184Z,3.20
2023-01-04T01:39:07.694Z,6.77
2023-01-04T01:41:37.276Z,1.93
2023-01-04T01:44:08.044Z,2.97
2023-01-04T01:46:41.419Z,3.73
2023-01-04T01:49:14.893Z,4.07
2023-01-04T01:51:43.880Z,2.40
2023-01-04T01:54:15.324Z,3.40
2023-01-04T01:56:47.657Z,4.63
2023-01-04T01:59:16.907Z,3.87
2023-01-04T02:01:45.615Z,5.90
2023-01-04T02:04:16.380Z,1.67
2023-01-04T02:06:48.518Z,6.30
2023-01-04T02:09:18.393Z,7.33
2023-01-04T02:11:47.602Z,6.00
2023-01-04T02:14:37.762Z,3.43
2023-01-04T02:17:13.059Z,5.17
2023-01-04T02:20:11.677Z,1.57
2023-01-04T02:23:13.034Z,5.93
2023-01-04T02:26:13.420Z,2.77
2023-01-04T02:29:04.984Z,6.10
2023-01-04T02:31:41.280Z,6.10
2023-01-04T02:34:20.426Z,4.53
2023-01-04T02:36:58.524Z,5.67
2023-01-04T02:39:35.627Z,5.07
2023-01-04T02:42:14.138Z,4.60
2023-01-04T02:44:54.628Z,6.77
2023-01-04T02:47:45.769Z,3.63
2023-01-04T02:50:32.344Z,4.40
2023-01-04T02:53:01.982Z,3.83
2023-01-04T02:55:41.524Z,7.03
2023-01-04T02:58:16.903Z,5.63
2023-01-04T03:01:13.155Z,5.30
2023-01-04T03:04:12.319Z,6.00
2023-01-04T03:06:45.518Z,5.30
2023-01-04T03:09:20.372Z,5.97
2023-01-04T03:12:11.213Z,10.30
2023-01-04T03:14:45.171Z,3.43
2023-01-04T03:17:15.865Z,4.60
2023-01-04T03:19:57.923Z,4.10
2023-01-04T03:22:50.129Z,3.83
2023-01-04T03:25:40.461Z,2.67
2023-01-04T03:28:29.468Z,2.77
2023-01-04T03:31:20.344Z,3.47
2023-01-04T03:34:06.317Z,6.13
2023-01-04T03:36:58.685Z,7.17
2023-01-04T03:39:54.360Z,2.43
2023-01-04T03:42:46.817Z,1.17
2023-01-04T03:45:36.589Z,4.27
2023-01-04T03:48:29.647Z,4.13
2023-01-04T03:51:04.393Z,2.87
2023-01-04T03:53:36.998Z,2.13
2023-01-04T03:56:05.310Z,2.00
2023-01-04T03:58:33.280Z,3.73
2023-01-04T04:01:04.133Z,2.10
2023-01-04T04:03:50.339Z,3.23
2023-01-04T04:06:36.303Z,3.67
2023-01-04T04:09:05.714Z,1.43
2023-01-04T04:11:33.828Z,2.80
2023-01-04T04:14:02.088Z,2.00
2023-01-04T04:16:30.487Z,4.03
2023-01-04T04:19:00.846Z,2.13
2023-01-04T04:21:32.510Z,3.50
2023-01-04T04:24:00.526Z,2.30
2023-01-04T04:26:29.786Z,1.70
2023-01-04T04:28:57.556Z,2.63
2023-01-04T04:31:25.546Z,1.93
2023-01-04T04:33:53.419Z,5.27
2023-01-04T04:36:21.315Z,2.77
2023-01-04T04:38:49.231Z,1.70
2023-01-04T04:41:34.864Z,1.87
2023-01-04T04:44:04.211Z,2.63
2023-01-04T04:46:31.993Z,1.20
2023-01-04T04:48:59.838Z,2.30
2023-01-04T04:51:27.780Z,1.70
2023-01-04T04:53:55.835Z,3.10
2023-01-04T04:56:23.704Z,2.10
2023-01-04T04:58:51.782Z,2.20
2023-01-04T05:01:21.479Z,3.37
2023-01-04T05:03:49.508Z,2.70
2023-01-04T05:06:17.434Z,4.87
2023-01-04T05:08:45.516Z,3.10
2023-01-04T05:11:14.460Z,7.03
2023-01-04T05:13:41.759Z,2.00
2023-01-04T05:16:11.264Z,4.47
2023-01-04T05:18:40.580Z,5.40
2023-01-04T05:21:08.451Z,5.87
2023-01-04T05:23:36.294Z,4.77
2023-01-04T05:26:05.099Z,5.10
2023-01-04T05:28:34.331Z,5.43
2023-01-04T05:31:01.143Z,7.10
2023-01-04T05:33:30.563Z,5.23
2023-01-04T05:36:01.607Z,9.23
2023-01-04T05:38:29.887Z,6.93
2023-01-04T05:40:58.583Z,8.50
2023-01-04T05:43:26.460Z,10.47
2023-01-04T05:45:57.069Z,4.23
2023-01-04T05:48:25.887Z,2.23
2023-01-04T05:50:54.402Z,2.40
2023-01-04T05:53:23.662Z,1.77
2023-01-04T05:55:51.553Z,3.57
2023-01-04T05:58:19.416Z,1.63
2023-01-04T06:00:47.231Z,2.73
2023-01-04T06:03:15.209Z,2.40
2023-01-04T06:05:43.161Z,3.53
2023-01-04T06:08:11.067Z,1.63
2023-01-04T06:10:40.398Z,3.50
2023-01-04T06:13:08.368Z,3.00
2023-01-04T06:15:41.074Z,3.67
2023-01-04T06:18:13.766Z,2.07
2023-01-04T06:20:43.607Z,5.23
2023-01-04T06:23:11.587Z,2.73
2023-01-04T06:25:40.921Z,1.80
2023-01-04T06:28:08.735Z,4.50
2023-01-04T06:30:36.756Z,4.63
2023-01-04T06:33:05.267Z,3.60
2023-01-04T06:35:33.197Z,3.90
2023-01-04T06:38:01.044Z,4.83
2023-01-04T06:40:28.922Z,2.50
2023-01-04T06:42:58.179Z,3.37
2023-01-04T06:45:26.112Z,1.80
2023-01-04T06:47:54.039Z,1.03
2023-01-04T06:50:21.907Z,2.90
2023-01-04T06:52:49.816Z,5.17
2023-01-04T06:55:17.773Z,0.60
2023-01-04T06:57:45.784Z,1.67
2023-01-04T07:00:16.901Z,0.50
2023-01-04T07:03:14.599Z,1.10
2023-01-04T07:05:32.578Z,1.40
2023-01-04T07:08:07.605Z,1.43
2023-01-04T07:10:36.351Z,1.37
2023-01-04T07:13:04.422Z,1.20
2023-01-04T07:15:39.220Z,0.53
2023-01-04T07:18:08.466Z,0.90
2023-01-04T07:20:36.523Z,1.00
2023-01-04T07:23:04.502Z,0.83
2023-01-04T07:25:32.313Z,1.23
2023-01-04T07:28:00.341Z,1.40
2023-01-04T07:30:28.144Z,0.93
2023-01-04T07:32:57.969Z,1.07
2023-01-04T07:35:26.155Z,0.87
2023-01-04T07:37:58.352Z,0.70
2023-01-04T07:40:27.771Z,1.37
2023-01-04T07:42:57.733Z,1.20
2023-01-04T07:45:26.297Z,1.73
2023-01-04T07:47:54.427Z,0.90
2023-01-04T07:50:23.692Z,0.47
2023-01-04T07:52:51.506Z,1.40
2023-01-04T07:55:19.408Z,1.00
2023-01-04T07:57:47.266Z,2.93
2023-01-04T08:00:15.909Z,2.03
2023-01-04T08:02:43.946Z,2.10
2023-01-04T08:05:11.974Z,3.63
2023-01-04T08:07:41.300Z,0.63
2023-01-04T08:10:09.938Z,0.93
2023-01-04T08:12:37.885Z,0.73
2023-01-04T08:15:08.533Z,2.13
2023-01-04T08:17:39.132Z,0.73
2023-01-04T08:20:08.186Z,0.50
2023-01-04T08:22:36.007Z,0.80
2023-01-04T08:25:07.037Z,2.10
2023-01-04T08:27:34.964Z,3.00
2023-01-04T08:30:03.300Z,1.93
2023-01-04T08:32:31.256Z,0.90
2023-01-04T08:34:59.108Z,2.60
2023-01-04T08:37:26.917Z,1.40
2023-01-04T08:39:54.787Z,2.60
2023-01-04T08:42:30.774Z,3.90
2023-01-04T08:45:01.615Z,3.93
2023-01-04T08:47:30.135Z,2.43
2023-01-04T08:49:58.542Z,6.73
2023-01-04T08:52:26.613Z,2.83
2023-01-04T08:54:54.976Z,1.70
2023-01-04T08:57:24.313Z,3.70
2023-01-04T08:59:52.104Z,1.60
2023-01-04T09:02:25.194Z,1.23
2023-01-04T09:04:55.330Z,1.67
2023-01-04T09:07:23.369Z,1.20
2023-01-04T09:09:51.244Z,2.77
2023-01-04T09:12:19.221Z,0.80
2023-01-04T09:14:48.546Z,2.50
2023-01-04T09:17:16.760Z,2.23
2023-01-04T09:19:44.640Z,3.50
2023-01-04T09:22:12.530Z,2.53
2023-01-04T09:24:40.429Z,1.17
2023-01-04T09:27:08.603Z,0.97
2023-01-04T09:29:36.872Z,5.43
2023-01-04T09:32:09.062Z,2.67
2023-01-04T09:34:39.887Z,2.03
2023-01-04T09:37:07.847Z,1.03
2023-01-04T09:39:35.720Z,2.80
2023-01-04T09:42:13.945Z,1.33
2023-01-04T09:45:21.994Z,4.07
2023-01-04T09:47:43.145Z,1.77
2023-01-04T09:50:16.455Z,1.40
2023-01-04T09:52:53.018Z,1.20
2023-01-04T09:55:37.174Z,1.60
2023-01-04T09:58:14.538Z,1.20
2023-01-04T10:00:46.837Z,1.13
2023-01-04T10:03:20.287Z,0.83
2023-01-04T10:05:48.579Z,1.53
2023-01-04T10:08:19.916Z,3.00
2023-01-04T10:10:57.950Z,1.70
2023-01-04T10:13:57.239Z,2.73
2023-01-04T10:17:12.285Z,3.90
2023-01-04T10:22:50.621Z,3.77
2023-01-04T10:25:37.720Z,2.07
2023-01-04T10:28:18.355Z,2.40
2023-01-04T10:30:58.956Z,1.10
2023-01-04T10:33:35.165Z,1.80
2023-01-04T10:36:05.053Z,3.00
2023-01-04T10:38:37.407Z,1.67
2023-01-04T10:41:13.432Z,0.87
2023-01-04T10:44:11.510Z,1.13
2023-01-04T10:46:44.047Z,3.63
2023-01-04T10:49:17.135Z,2.53
2023-01-04T10:51:51.989Z,2.57
2023-01-04T10:54:28.589Z,1.23
2023-01-04T10:57:07.075Z,1.73
2023-01-04T10:59:39.784Z,1.90
2023-01-04T11:02:17.263Z,1.30
2023-01-04T11:04:53.606Z,4.10
2023-01-04T11:07:27.928Z,1.70
2023-01-04T11:10:00.862Z,1.77
2023-01-04T11:12:28.819Z,2.10
2023-01-04T11:14:56.827Z,1.27
2023-01-04T11:17:26.155Z,3.23
2023-01-04T11:19:54.950Z,1.20
2023-01-04T11:22:29.604Z,1.27
2023-01-04T11:27:56.280Z,3.07
2023-01-04T11:30:26.662Z,2.83
2023-01-04T11:33:03.034Z,3.23
2023-01-04T11:38:15.887Z,2.07
2023-01-04T11:41:23.963Z,4.10
2023-01-04T11:44:00.887Z,3.40
2023-01-04T11:46:31.955Z,2.10
2023-01-04T11:49:05.929Z,3.27
2023-01-04T11:51:44.729Z,2.27
2023-01-04T11:54:23.081Z,1.70
2023-01-04T11:57:12.032Z,1.57
2023-01-04T11:59:53.844Z,2.67
2023-01-04T12:02:59.526Z,3.03
2023-01-04T12:05:29.116Z,2.60
2023-01-04T12:08:09.510Z,3.73
2023-01-04T12:10:39.781Z,2.97
2023-01-04T12:13:13.369Z,3.53
2023-01-04T12:15:56.669Z,1.63
2023-01-04T12:18:31.101Z,2.03
2023-01-04T12:21:00.981Z,1.53
2023-01-04T12:23:31.365Z,2.57
2023-01-04T12:26:01.265Z,2.30
2023-01-04T12:28:36.434Z,2.10
2023-01-04T12:31:34.243Z,2.90
2023-01-04T12:34:34.460Z,1.23
2023-01-04T12:37:06.128Z,2.03
2023-01-04T12:39:45.041Z,4.60
2023-01-04T12:42:24.729Z,2.67
2023-01-04T12:45:23.771Z,1.23
2023-01-04T12:48:07.673Z,2.17
2023-01-04T12:51:42.724Z,4.30
2023-01-04T12:54:32.228Z,2.60
2023-01-04T12:57:32.074Z,2.43
2023-01-04T13:00:08.059Z,1.27
2023-01-04T13:02:46.923Z,1.73
2023-01-04T13:08:26.764Z,2.27
2023-01-04T13:10:58.512Z,5.17
2023-01-04T13:13:35.883Z,2.30
2023-01-04T13:16:19.856Z,1.23
2023-01-04T13:18:55.338Z,0.67
2023-01-04T13:21:31.909Z,2.67
2023-01-04T13:24:03.610Z,0.83
2023-01-04T13:26:39.349Z,1.07
2023-01-04T13:29:17.438Z,0.90
2023-01-04T13:32:01.628Z,0.90
2023-01-04T13:34:38.197Z,0.87
2023-01-04T13:37:11.181Z,1.77
2023-01-04T13:39:43.947Z,0.97
2023-01-04T13:42:21.281Z,1.17
2023-01-04T13:45:20.552Z,3.30
2023-01-04T13:47:53.427Z,2.17
2023-01-04T13:50:36.997Z,2.67
2023-01-04T13:53:09.135Z,1.80
2023-01-04T13:55:40.482Z,2.40
2023-01-04T13:58:20.685Z,2.93
2023-01-04T14:00:55.324Z,1.83
2023-01-04T14:03:31.847Z,2.13
2023-01-04T14:06:16.605Z,2.70
2023-01-04T14:08:52.368Z,3.30
2023-01-04T14:11:38.012Z,1.30
2023-01-04T14:14:33.466Z,1.10
2023-01-04T14:17:20.057Z,0.90
2023-01-04T14:19:56.780Z,1.00
2023-01-04T14:22:39.009Z,1.03
2023-01-04T14:25:45.143Z,2.30
2023-01-04T14:28:33.852Z,0.87
2023-01-04T14:31:33.557Z,3.77
2023-01-04T14:34:17.641Z,1.20
2023-01-04T14:36:49.084Z,1.67
2023-01-04T14:39:33.787Z,1.07
2023-01-04T14:42:05.274Z,1.30
2023-01-04T14:44:41.630Z,1.00
2023-01-04T14:47:14.725Z,1.63
2023-01-04T14:49:46.170Z,0.93
2023-01-04T14:52:26.319Z,1.47
2023-01-04T14:55:02.694Z,0.60
2023-01-04T14:57:34.773Z,1.57
2023-01-04T15:00:12.587Z,1.00
2023-01-04T15:02:51.356Z,1.90
2023-01-04T15:05:23.716Z,2.17
2023-01-04T15:07:56.506Z,5.30
2023-01-04T15:10:31.511Z,1.50
2023-01-04T15:13:04.621Z,1.73
2023-01-04T15:15:35.094Z,1.60
2023-01-04T15:18:05.144Z,2.23
2023-01-04T15:20:37.627Z,2.20
2023-01-04T15:23:08.550Z,1.77
2023-01-04T15:25:46.119Z,2.30
2023-01-04T15:28:17.162Z,3.47
2023-01-04T15:30:49.762Z,3.87
2023-01-04T15:33:19.581Z,3.50
2023-01-04T15:35:52.611Z,4.60
2023-01-04T15:38:24.863Z,3.27
2023-01-04T15:41:08.919Z,5.60
2023-01-04T15:43:37.268Z,3.23
2023-01-04T15:46:11.568Z,1.77
2023-01-04T15:48:41.556Z,5.50
2023-01-04T15:51:12.593Z,3.93
2023-01-04T15:53:42.465Z,5.73
2023-01-04T15:56:16.089Z,2.43
2023-01-04T15:58:46.056Z,2.47
2023-01-04T16:01:18.375Z,3.53
2023-01-04T16:03:51.550Z,2.63
2023-01-04T16:06:24.378Z,7.03
2023-01-04T16:08:54.236Z,3.63
2023-01-04T16:11:27.580Z,3.10
2023-01-04T16:13:57.520Z,3.13
2023-01-04T16:16:29.976Z,4.50
2023-01-04T16:19:02.252Z,7.87
2023-01-04T16:21:32.335Z,3.27
2023-01-04T16:24:17.069Z,4.17
2023-01-04T16:26:58.041Z,3.37
2023-01-04T16:29:30.134Z,5.07
2023-01-04T16:32:03.887Z,6.70
2023-01-04T16:34:36.179Z,3.80
2023-01-04T16:37:09.642Z,4.13
2023-01-04T16:42:40.479Z,3.93
2023-01-04T16:45:13.752Z,7.33
2023-01-04T16:47:46.505Z,10.03
2023-01-04T16:50:20.131Z,3.80
2023-01-04T16:52:51.597Z,4.60
2023-01-04T16:55:26.567Z,3.57
2023-01-04T16:58:04.685Z,7.87
2023-01-04T17:00:35.152Z,4.50
2023-01-04T17:03:06.558Z,3.73
2023-01-04T17:05:42.862Z,3.03
2023-01-04T17:08:13.527Z,2.93
2023-01-04T17:10:43.397Z,2.37
2023-01-04T17:13:17.833Z,0.87
2023-01-04T17:15:49.051Z,2.23
2023-01-04T17:18:23.323Z,2.67
2023-01-04T17:21:16.798Z,5.63
2023-01-04T17:23:50.063Z,1.77
2023-01-04T17:26:22.482Z,4.67
2023-01-04T17:28:55.998Z,4.60
2023-01-04T17:31:29.361Z,6.80
2023-01-04T17:33:59.148Z,2.00
2023-01-04T17:36:29.066Z,2.17
2023-01-04T17:38:59.019Z,2.27
2023-01-04T17:41:29.982Z,2.37
2023-01-04T17:44:04.075Z,3.57
2023-01-04T17:46:35.426Z,0.60
2023-01-04T17:49:22.193Z,3.17
2023-01-04T17:51:54.617Z,5.80
2023-01-04T17:54:25.839Z,6.93
2023-01-04T17:56:55.615Z,9.27
2023-01-04T17:59:28.225Z,8.57
2023-01-04T18:01:58.387Z,7.30
2023-01-04T18:04:28.278Z,6.13
2023-01-04T18:06:58.225Z,9.70
2023-01-04T18:09:27.990Z,9.57
2023-01-04T18:11:58.991Z,6.97
2023-01-04T18:14:34.529Z,15.23
2023-01-04T18:17:06.280Z,6.60
2023-01-04T18:19:40.363Z,8.10
2023-01-04T18:22:11.809Z,9.97
2023-01-04T18:24:41.826Z,11.70
2023-01-04T18:27:25.579Z,9.97
2023-01-04T18:30:01.633Z,9.87
2023-01-04T18:32:31.517Z,17.87
2023-01-04T18:35:05.412Z,15.93
2023-01-04T18:37:35.699Z,13.73
2023-01-04T18:40:05.650Z,16.53
2023-01-04T18:42:37.415Z,10.67
2023-01-04T18:45:12.182Z,10.93
2023-01-04T18:47:42.174Z,8.87
2023-01-04T18:50:14.355Z,9.73
2023-01-04T18:52:44.258Z,14.83
2023-01-04T18:55:14.380Z,12.10
2023-01-04T18:57:44.404Z,17.53
2023-01-04T19:00:17.719Z,14.13
2023-01-04T19:02:47.643Z,14.93
2023-01-04T19:05:19.065Z,22.43
2023-01-04T19:07:50.415Z,14.30
2023-01-04T19:10:20.445Z,16.40
2023-01-04T19:12:50.266Z,21.47
2023-01-04T19:15:24.162Z,17.47
2023-01-04T19:18:03.363Z,14.80
2023-01-04T19:20:33.366Z,20.30
2023-01-04T19:23:03.101Z,17.87
2023-01-04T19:25:32.942Z,24.53
2023-01-04T19:28:02.939Z,18.67
2023-01-04T19:30:40.249Z,21.17
2023-01-04T19:33:12.097Z,15.80
2023-01-04T19:35:44.002Z,16.03
2023-01-04T19:38:14.818Z,16.17
2023-01-04T19:40:44.646Z,19.17
2023-01-04T19:43:16.035Z,19.23
2023-01-04T19:45:48.589Z,22.60
2023-01-04T19:48:18.391Z,23.33
2023-01-04T19:50:48.288Z,19.93
2023-01-04T19:53:18.020Z,19.77
2023-01-04T19:55:47.825Z,12.60
2023-01-04T19:58:17.969Z,16.77
2023-01-04T20:00:55.086Z,21.07
2023-01-04T20:03:26.275Z,16.60
2023-01-04T20:05:56.632Z,27.70
2023-01-04T20:08:26.376Z,15.00
2023-01-04T20:10:57.159Z,9.77
2023-01-04T20:13:27.233Z,16.80
2023-01-04T20:16:05.009Z,17.87
2023-01-04T20:18:35.715Z,23.27
2023-01-04T20:21:10.790Z,28.20
2023-01-04T20:23:41.412Z,14.17
2023-01-04T20:26:16.045Z,19.13
2023-01-04T20:28:46.700Z,16.37
2023-01-04T20:31:21.513Z,15.90
2023-01-04T20:33:51.687Z,21.17
2023-01-04T20:36:23.559Z,18.13
2023-01-04T20:38:53.823Z,24.60
2023-01-04T20:41:25.905Z,19.60
2023-01-04T20:43:53.149Z,25.57
2023-01-04T20:46:28.666Z,17.50
2023-01-04T20:48:58.903Z,19.10
2023-01-04T20:51:33.208Z,20.17
2023-01-04T20:54:03.020Z,19.30
2023-01-04T20:56:37.690Z,18.33
2023-01-04T20:59:08.121Z,28.17
2023-01-04T21:01:40.648Z,19.67
2023-01-04T21:04:10.510Z,10.90
2023-01-04T21:06:40.322Z,25.50
2023-01-04T21:09:10.059Z,12.63
2023-01-04T21:11:39.897Z,15.43
2023-01-04T21:14:11.139Z,17.40
2023-01-04T21:16:43.567Z,22.20
2023-01-04T21:19:13.358Z,20.67
2023-01-04T21:21:43.094Z,19.03
2023-01-04T21:24:12.865Z,16.40
2023-01-04T21:26:42.581Z,24.17
2023-01-04T21:29:12.397Z,21.37
2023-01-04T21:31:44.971Z,18.43
2023-01-04T21:34:19.493Z,19.53
2023-01-04T21:36:52.882Z,20.57
2023-01-04T21:39:22.870Z,17.00
2023-01-04T21:41:52.699Z,14.90
2023-01-04T21:44:22.536Z,20.43
2023-01-04T21:46:55.329Z,21.77
2023-01-04T21:49:25.116Z,19.40
2023-01-04T21:51:54.960Z,16.40
2023-01-04T21:54:24.729Z,17.57
2023-01-04T21:56:54.504Z,16.47
2023-01-04T21:59:24.479Z,13.03
2023-01-04T22:02:08.209Z,18.60
2023-01-04T22:04:38.342Z,32.93
2023-01-04T22:07:08.835Z,15.97
2023-01-04T22:09:38.583Z,13.00
2023-01-04T22:12:09.581Z,14.47
2023-01-04T22:14:39.424Z,16.63
2023-01-04T22:17:12.892Z,21.43
2023-01-04T22:19:42.767Z,17.30
2023-01-04T22:22:12.505Z,20.50
2023-01-04T22:24:42.310Z,21.33
2023-01-04T22:27:12.058Z,17.23
2023-01-04T22:29:41.895Z,23.37
2023-01-04T22:32:14.237Z,24.97
2023-01-04T22:34:44.001Z,17.33
2023-01-04T22:37:13.738Z,21.23
2023-01-04T22:39:43.492Z,24.37
2023-01-04T22:42:14.115Z,19.80
2023-01-04T22:44:43.927Z,18.27
2023-01-04T22:47:16.570Z,13.27
2023-01-04T22:49:46.363Z,18.43
2023-01-04T22:52:16.074Z,17.07
2023-01-04T22:54:45.902Z,23.93
2023-01-04T22:57:15.591Z,19.27
2023-01-04T22:59:45.322Z,14.67
2023-01-04T23:02:17.691Z,25.60
2023-01-04T23:04:47.493Z,16.27
2023-01-04T23:07:17.359Z,10.37
2023-01-04T23:09:47.517Z,15.23
2023-01-04T23:12:17.307Z,17.20
2023-01-04T23:14:47.365Z,20.93
2023-01-04T23:17:19.776Z,23.17
2023-01-04T23:19:49.565Z,26.40
2023-01-04T23:22:19.311Z,18.97
2023-01-04T23:24:49.057Z,21.37
2023-01-04T23:27:18.893Z,21.93
2023-01-04T23:29:48.988Z,25.30
2023-01-04T23:32:21.446Z,18.73
2023-01-04T23:34:53.141Z,21.67
2023-01-04T23:37:22.967Z,14.03
2023-01-04T23:39:52.769Z,23.43
2023-01-04T23:42:22.665Z,19.37
2023-01-04T23:44:52.454Z,19.90
2023-01-04T23:47:25.144Z,25.30
2023-01-04T23:49:54.936Z,12.80
2023-01-04T23:52:24.671Z,17.00
2023-01-04T23:54:54.857Z,26.83
2023-01-04T23:57:24.577Z,21.90
2023-01-04T23:59:54.360Z,18.70
